Time;durP1;ratioP1;P1;durP2;ratioP2;P2;SDS_P1;SDS_P2;PMS_P1;PMS_P2;Temp;Humidity;BMP_temperature;BMP_pressure;BME280_temperature;BME280_humidity;BME280_pressure;Samples;Min_cycle;Max_cycle;Signal;HPM_P1;HPM_P2
2022/08/24 00:01:12;;;;;;;43.22;20.02;;;;;;;;;;5027126;28;20049;-69
2022/08/24 00:03:39;;;;;;;49.15;19.08;;;;;;;;;;5026994;28;20128;-70
2022/08/24 00:06:08;;;;;;;47.25;21.50;;;;;;;;;;5027879;28;20129;-72
2022/08/24 00:08:35;;;;;;;45.28;19.95;;;;;;;;;;5031766;28;20037;-73
2022/08/24 00:11:01;;;;;;;46.22;21.30;;;;;;;;;;5027457;28;20116;-73
2022/08/24 00:13:28;;;;;;;56.75;22.52;;;;;;;;;;5026922;28;20124;-73
2022/08/24 00:15:58;;;;;;;58.85;23.30;;;;;;;;;;5027042;28;20057;-71
2022/08/24 00:18:25;;;;;;;55.60;23.33;;;;;;;;;;5026983;28;20046;-70
2022/08/24 00:20:52;;;;;;;55.55;23.52;;;;;;;;;;5029496;28;20117;-71
2022/08/24 00:23:19;;;;;;;46.63;24.52;;;;;;;;;;5033501;28;20179;-72
2022/08/24 00:25:45;;;;;;;46.25;23.27;;;;;;;;;;5027192;28;20450;-72
2022/08/24 00:28:12;;;;;;;43.22;21.95;;;;;;;;;;5026993;28;20095;-72
2022/08/24 00:30:38;;;;;;;61.47;27.27;;;;;;;;;;5026970;28;20041;-68
2022/08/24 00:33:06;;;;;;;49.17;26.70;;;;;;;;;;5027568;28;20046;-70
2022/08/24 00:35:32;;;;;;;67.47;25.92;;;;;;;;;;5028712;28;20516;-69
2022/08/24 00:37:59;;;;;;;60.45;24.80;;;;;;;;;;5025299;28;20423;-69
2022/08/24 00:40:28;;;;;;;42.15;21.02;;;;;;;;;;5025427;28;20125;-69
2022/08/24 00:42:55;;;;;;;42.53;19.55;;;;;;;;;;5054103;28;20049;-68
2022/08/24 00:45:23;;;;;;;49.38;18.98;;;;;;;;;;5027096;28;20117;-68
2022/08/24 00:47:55;;;;;;;47.40;22.48;;;;;;;;;;5030298;28;20037;-68
2022/08/24 00:50:24;;;;;;;65.50;25.38;;;;;;;;;;5028840;28;20057;-68
2022/08/24 00:52:55;;;;;;;48.10;24.02;;;;;;;;;;5045732;28;20128;-68
2022/08/24 00:55:25;;;;;;;58.40;24.40;;;;;;;;;;5019760;28;20096;-68
2022/08/24 00:57:54;;;;;;;57.40;24.75;;;;;;;;;;5026088;28;20041;-68
2022/08/24 01:00:23;;;;;;;61.70;27.73;;;;;;;;;;5027259;28;20130;-68
2022/08/24 01:02:51;;;;;;;70.15;32.80;;;;;;;;;;5029357;28;20473;-68
2022/08/24 01:05:18;;;;;;;65.95;28.65;;;;;;;;;;5029767;28;20065;-68
2022/08/24 01:07:47;;;;;;;59.90;28.38;;;;;;;;;;5028278;28;20453;-68
2022/08/24 01:10:15;;;;;;;68.15;30.77;;;;;;;;;;5024515;28;20061;-68
2022/08/24 01:12:44;;;;;;;65.45;27.67;;;;;;;;;;5026282;28;20073;-68
2022/08/24 01:15:28;;;;;;;63.00;32.78;;;;;;;;;;5026620;28;20467;-66
2022/08/24 01:20:43;;;;;;;62.55;32.17;;;;;;;;;;5043343;28;20141;-70
2022/08/24 01:23:23;;;;;;;67.97;30.20;;;;;;;;;;5030126;28;20520;-70
2022/08/24 01:25:53;;;;;;;58.72;26.30;;;;;;;;;;5025852;28;20046;-70
2022/08/24 01:28:20;;;;;;;58.38;24.70;;;;;;;;;;5018085;28;20071;-64
2022/08/24 01:30:52;;;;;;;52.55;24.40;;;;;;;;;;5024809;28;20045;-65
2022/08/24 01:33:25;;;;;;;60.95;27.10;;;;;;;;;;5025677;28;20148;-65
2022/08/24 01:36:11;;;;;;;61.35;27.10;;;;;;;;;;5019347;28;20041;-65
2022/08/24 01:38:37;;;;;;;46.15;27.70;;;;;;;;;;5025134;28;20141;-66
2022/08/24 01:41:04;;;;;;;62.22;29.63;;;;;;;;;;5025476;28;20041;-66
2022/08/24 01:43:31;;;;;;;53.40;29.58;;;;;;;;;;5025684;28;20072;-66
2022/08/24 01:46:04;;;;;;;65.75;27.83;;;;;;;;;;5058307;28;20413;-70
2022/08/24 01:48:31;;;;;;;65.88;30.17;;;;;;;;;;5028774;28;20436;-70
2022/08/24 01:50:58;;;;;;;60.15;28.58;;;;;;;;;;5043906;28;20076;-69
2022/08/24 01:53:25;;;;;;;63.47;28.75;;;;;;;;;;5023055;28;20560;-70
2022/08/24 01:55:51;;;;;;;64.55;29.25;;;;;;;;;;5024268;28;20065;-69
2022/08/24 01:58:18;;;;;;;85.85;36.22;;;;;;;;;;5023824;28;20132;-69
2022/08/24 02:00:45;;;;;;;85.10;33.92;;;;;;;;;;5025362;28;20038;-66
2022/08/24 02:03:12;;;;;;;61.97;33.20;;;;;;;;;;5024686;28;20040;-66
2022/08/24 02:05:42;;;;;;;66.22;34.92;;;;;;;;;;5022204;28;20053;-66
2022/08/24 02:08:13;;;;;;;76.20;33.88;;;;;;;;;;5029923;28;20076;-67
2022/08/24 02:10:39;;;;;;;61.55;28.20;;;;;;;;;;5025283;28;20136;-66
2022/08/24 02:13:14;;;;;;;51.13;25.63;;;;;;;;;;5024858;28;20065;-67
2022/08/24 02:15:41;;;;;;;69.20;27.30;;;;;;;;;;5029789;28;20042;-68
2022/08/24 02:18:10;;;;;;;58.75;26.15;;;;;;;;;;5029360;28;20049;-67
2022/08/24 02:20:42;;;;;;;61.08;26.20;;;;;;;;;;5025765;28;20070;-67
2022/08/24 02:23:08;;;;;;;79.60;27.83;;;;;;;;;;5032158;28;20132;-67
2022/08/24 02:25:35;;;;;;;49.78;24.52;;;;;;;;;;5029971;28;20034;-67
2022/08/24 02:28:02;;;;;;;43.25;21.58;;;;;;;;;;5029096;28;20121;-67
2022/08/24 02:30:29;;;;;;;56.90;24.52;;;;;;;;;;5061142;28;20038;-67
2022/08/24 02:32:56;;;;;;;69.05;27.45;;;;;;;;;;5063486;28;20103;-69
2022/08/24 02:35:23;;;;;;;50.00;25.08;;;;;;;;;;5030030;28;20049;-65
2022/08/24 02:37:51;;;;;;;70.72;29.73;;;;;;;;;;5027168;28;20068;-66
2022/08/24 02:40:18;;;;;;;57.30;26.67;;;;;;;;;;5024104;28;20557;-69
2022/08/24 02:42:44;;;;;;;62.03;26.98;;;;;;;;;;5044606;28;20049;-69
2022/08/24 02:45:11;;;;;;;74.72;27.65;;;;;;;;;;5044482;28;20038;-69
2022/08/24 02:47:38;;;;;;;47.50;24.50;;;;;;;;;;5033239;28;20478;-68
2022/08/24 02:50:07;;;;;;;63.80;24.55;;;;;;;;;;5027899;28;20068;-71
2022/08/24 02:52:35;;;;;;;63.55;25.67;;;;;;;;;;5026346;28;20516;-69
2022/08/24 02:55:02;;;;;;;57.75;24.70;;;;;;;;;;5056017;28;20034;-70
2022/08/24 02:57:28;;;;;;;56.92;24.02;;;;;;;;;;5027125;28;20414;-70
2022/08/24 02:59:55;;;;;;;76.38;26.80;;;;;;;;;;5031133;28;20448;-69
2022/08/24 03:02:21;;;;;;;54.58;24.10;;;;;;;;;;5029029;28;20189;-69
2022/08/24 03:04:48;;;;;;;52.45;25.08;;;;;;;;;;5026502;28;20674;-70
2022/08/24 03:07:15;;;;;;;63.83;25.85;;;;;;;;;;5023469;28;20038;-69
2022/08/24 03:09:41;;;;;;;50.33;25.08;;;;;;;;;;5019295;28;20052;-70
2022/08/24 03:12:08;;;;;;;43.92;24.08;;;;;;;;;;5028534;28;20045;-70
2022/08/24 03:14:36;;;;;;;61.45;25.88;;;;;;;;;;5030467;28;20577;-69
2022/08/24 03:17:03;;;;;;;45.80;23.98;;;;;;;;;;5028235;28;20116;-70
2022/08/24 03:19:30;;;;;;;50.05;20.38;;;;;;;;;;5049423;28;20038;-69
2022/08/24 03:21:56;;;;;;;56.80;22.13;;;;;;;;;;5017761;28;20528;-68
2022/08/24 03:24:24;;;;;;;36.13;18.00;;;;;;;;;;5027066;28;20507;-69
2022/08/24 03:26:51;;;;;;;48.47;17.70;;;;;;;;;;5031118;28;20041;-69
2022/08/24 03:29:17;;;;;;;49.92;16.95;;;;;;;;;;5029185;28;20133;-69
2022/08/24 03:31:45;;;;;;;37.72;14.98;;;;;;;;;;5026284;28;20038;-70
2022/08/24 03:34:13;;;;;;;42.88;16.13;;;;;;;;;;5034802;28;20041;-70
2022/08/24 03:36:44;;;;;;;61.58;18.27;;;;;;;;;;5026066;28;20033;-69
2022/08/24 03:39:13;;;;;;;28.98;13.75;;;;;;;;;;5027110;28;20058;-69
2022/08/24 03:41:40;;;;;;;43.20;14.93;;;;;;;;;;5027305;28;20069;-69
2022/08/24 03:44:07;;;;;;;33.20;14.95;;;;;;;;;;5026043;28;20038;-69
2022/08/24 03:46:35;;;;;;;38.35;15.65;;;;;;;;;;5026165;28;20041;-69
2022/08/24 03:49:04;;;;;;;40.10;14.32;;;;;;;;;;5045122;28;20129;-70
2022/08/24 03:51:30;;;;;;;42.17;15.38;;;;;;;;;;5026157;28;20046;-70
2022/08/24 03:53:58;;;;;;;46.25;16.58;;;;;;;;;;5061944;28;20049;-70
2022/08/24 03:56:27;;;;;;;40.03;15.38;;;;;;;;;;5025662;28;20049;-70
2022/08/24 03:58:54;;;;;;;38.58;15.60;;;;;;;;;;5027516;28;20048;-70
2022/08/24 04:01:23;;;;;;;29.73;13.02;;;;;;;;;;5049891;28;20038;-70
2022/08/24 04:03:52;;;;;;;43.85;12.77;;;;;;;;;;5015889;28;20092;-70
2022/08/24 04:06:22;;;;;;;26.70;11.13;;;;;;;;;;5017419;28;20394;-69
2022/08/24 04:08:49;;;;;;;40.60;11.88;;;;;;;;;;5031300;28;20532;-70
2022/08/24 04:11:17;;;;;;;48.15;13.45;;;;;;;;;;5026218;28;20050;-63
2022/08/24 04:13:45;;;;;;;33.90;11.20;;;;;;;;;;5021930;28;20073;-65
2022/08/24 04:16:13;;;;;;;30.45;11.43;;;;;;;;;;5026891;28;20033;-65
2022/08/24 04:18:41;;;;;;;49.28;12.05;;;;;;;;;;5054861;28;20064;-67
2022/08/24 04:21:16;;;;;;;39.03;11.18;;;;;;;;;;5043434;28;20088;-66
2022/08/24 04:23:42;;;;;;;32.17;10.55;;;;;;;;;;5027328;28;20067;-70
2022/08/24 04:26:15;;;;;;;45.28;12.00;;;;;;;;;;5028542;28;20041;-73
2022/08/24 04:28:50;;;;;;;26.40;11.07;;;;;;;;;;5024438;28;20054;-68
2022/08/24 04:31:18;;;;;;;50.00;12.52;;;;;;;;;;5029024;28;20068;-68
2022/08/24 04:33:46;;;;;;;31.15;10.80;;;;;;;;;;5028394;28;20053;-69
2022/08/24 04:36:20;;;;;;;34.20;10.88;;;;;;;;;;5048506;28;20037;-66
2022/08/24 04:38:47;;;;;;;42.10;12.45;;;;;;;;;;5029558;28;20049;-64
2022/08/24 04:41:34;;;;;;;26.85;10.48;;;;;;;;;;5020431;28;20049;-65
2022/08/24 04:44:01;;;;;;;35.70;10.30;;;;;;;;;;5024439;28;20037;-66
2022/08/24 04:46:28;;;;;;;25.27;9.88;;;;;;;;;;5022033;28;20049;-68
2022/08/24 04:48:55;;;;;;;33.47;10.63;;;;;;;;;;5015359;28;20476;-70
2022/08/24 04:51:21;;;;;;;46.88;12.88;;;;;;;;;;5058200;28;20054;-70
2022/08/24 04:53:49;;;;;;;28.08;10.93;;;;;;;;;;5062438;28;20060;-68
2022/08/24 04:56:23;;;;;;;27.85;10.40;;;;;;;;;;5022591;28;20044;-70
2022/08/24 04:58:51;;;;;;;38.20;10.98;;;;;;;;;;5026251;28;20076;-69
2022/08/24 05:01:19;;;;;;;30.92;10.57;;;;;;;;;;5030155;28;20037;-71
2022/08/24 05:03:49;;;;;;;38.88;11.65;;;;;;;;;;5025418;28;20073;-69
2022/08/24 05:06:16;;;;;;;34.05;10.00;;;;;;;;;;5010169;28;20037;-67
2022/08/24 05:08:42;;;;;;;34.33;11.18;;;;;;;;;;5026261;28;20049;-68
2022/08/24 05:11:09;;;;;;;46.13;10.93;;;;;;;;;;5021450;28;20128;-66
2022/08/24 05:13:36;;;;;;;39.10;10.32;;;;;;;;;;5015926;28;20103;-70
2022/08/24 05:16:07;;;;;;;26.65;9.50;;;;;;;;;;5019305;28;20045;-68
2022/08/24 05:18:34;;;;;;;42.85;11.80;;;;;;;;;;5024183;28;20088;-69
2022/08/24 05:21:01;;;;;;;30.38;9.40;;;;;;;;;;5060624;28;20049;-68
2022/08/24 05:23:29;;;;;;;28.13;9.52;;;;;;;;;;5042537;28;20045;-68
2022/08/24 05:26:04;;;;;;;45.65;10.93;;;;;;;;;;5041563;28;20038;-68
2022/08/24 05:28:32;;;;;;;36.72;10.32;;;;;;;;;;5041626;28;20522;-68
2022/08/24 05:31:05;;;;;;;38.40;11.00;;;;;;;;;;5012143;28;20140;-69
2022/08/24 05:33:32;;;;;;;30.92;9.85;;;;;;;;;;5025977;28;20606;-68
2022/08/24 05:35:58;;;;;;;33.63;9.23;;;;;;;;;;5026982;28;20095;-78
2022/08/24 05:38:25;;;;;;;42.20;11.35;;;;;;;;;;5023529;28;20572;-80
2022/08/24 05:40:51;;;;;;;37.05;10.52;;;;;;;;;;5025446;28;20686;-79
2022/08/24 05:43:21;;;;;;;31.23;9.73;;;;;;;;;;5026371;28;20041;-77
2022/08/24 05:45:48;;;;;;;45.50;10.40;;;;;;;;;;5027792;28;20060;-76
2022/08/24 05:48:15;;;;;;;34.17;10.18;;;;;;;;;;5026180;28;20635;-74
2022/08/24 05:51:00;;;;;;;38.53;10.20;;;;;;;;;;5025843;28;20052;-75
2022/08/24 05:53:32;;;;;;;33.40;9.88;;;;;;;;;;5027612;28;20119;-75
2022/08/24 05:56:04;;;;;;;36.88;9.68;;;;;;;;;;5037135;28;20046;-74
2022/08/24 05:58:31;;;;;;;51.90;10.60;;;;;;;;;;5029974;28;20073;-74
2022/08/24 06:01:04;;;;;;;35.35;10.40;;;;;;;;;;5012114;28;20038;-72
2022/08/24 06:03:31;;;;;;;34.92;9.85;;;;;;;;;;5045968;28;20050;-70
2022/08/24 06:06:00;;;;;;;45.15;10.80;;;;;;;;;;5043824;28;20049;-70
2022/08/24 06:08:27;;;;;;;26.23;8.32;;;;;;;;;;5021840;28;20049;-71
2022/08/24 06:10:55;;;;;;;35.22;9.70;;;;;;;;;;5020497;28;20042;-65
2022/08/24 06:13:21;;;;;;;53.88;12.00;;;;;;;;;;5012988;28;20053;-66
2022/08/24 06:15:48;;;;;;;29.00;9.25;;;;;;;;;;5009612;28;20057;-66
2022/08/24 06:18:34;;;;;;;38.10;9.88;;;;;;;;;;5043347;28;20030;-63
2022/08/24 06:21:11;;;;;;;43.40;10.13;;;;;;;;;;5025996;28;20506;-68
2022/08/24 06:23:42;;;;;;;38.13;9.63;;;;;;;;;;5024887;28;20058;-68
2022/08/24 06:28:55;;;;;;;44.53;10.75;;;;;;;;;;5039707;28;20080;-71
2022/08/24 06:31:25;;;;;;;31.52;8.80;;;;;;;;;;5026230;28;20045;-67
2022/08/24 06:33:53;;;;;;;33.33;9.50;;;;;;;;;;5052242;28;20049;-72
2022/08/24 06:36:20;;;;;;;44.92;10.25;;;;;;;;;;5025742;28;20049;-68
2022/08/24 06:38:48;;;;;;;29.20;7.47;;;;;;;;;;5030004;28;20062;-75
2022/08/24 06:41:15;;;;;;;20.13;6.93;;;;;;;;;;5027733;28;20049;-70
2022/08/24 06:43:42;;;;;;;25.65;7.60;;;;;;;;;;5024803;28;20089;-71
2022/08/24 06:46:10;;;;;;;34.70;8.23;;;;;;;;;;5024356;28;20048;-56
2022/08/24 06:48:44;;;;;;;30.95;8.60;;;;;;;;;;5021911;28;20068;-56
2022/08/24 06:51:12;;;;;;;34.65;8.90;;;;;;;;;;5050394;28;20463;-56
2022/08/24 06:53:39;;;;;;;21.02;7.05;;;;;;;;;;5028759;28;20038;-56
2022/08/24 06:56:07;;;;;;;30.60;8.18;;;;;;;;;;5021125;28;20495;-56
2022/08/24 06:58:34;;;;;;;47.63;9.45;;;;;;;;;;5022836;28;20034;-57
2022/08/24 07:01:12;;;;;;;46.83;8.68;;;;;;;;;;5050664;28;20046;-58
2022/08/24 07:03:39;;;;;;;43.65;8.85;;;;;;;;;;5026690;28;20470;-56
2022/08/24 07:06:40;;;;;;;30.10;7.15;;;;;;;;;;4978600;28;20467;-56
2022/08/24 07:09:08;;;;;;;46.97;9.13;;;;;;;;;;4968675;28;20142;-56
2022/08/24 07:11:34;;;;;;;41.03;8.00;;;;;;;;;;5006851;28;20050;-56
2022/08/24 07:14:03;;;;;;;52.67;9.70;;;;;;;;;;4971759;28;20133;-58
2022/08/24 07:16:29;;;;;;;42.78;8.68;;;;;;;;;;4970269;28;20121;-57
2022/08/24 07:19:01;;;;;;;37.22;7.70;;;;;;;;;;4995359;28;20050;-57
2022/08/24 07:21:28;;;;;;;56.40;9.52;;;;;;;;;;4959716;28;20043;-57
2022/08/24 07:23:56;;;;;;;57.22;10.15;;;;;;;;;;5002670;28;20525;-57
2022/08/24 07:26:25;;;;;;;45.75;12.50;;;;;;;;;;4974852;28;20053;-56
2022/08/24 07:28:58;;;;;;;51.00;9.38;;;;;;;;;;4974104;28;20047;-57
2022/08/24 07:31:26;;;;;;;42.50;8.90;;;;;;;;;;4964603;28;20055;-57
2022/08/24 07:34:05;;;;;;;39.90;8.73;;;;;;;;;;5001957;28;20056;-57
2022/08/24 07:36:32;;;;;;;48.30;8.23;;;;;;;;;;4986391;28;20038;-57
2022/08/24 07:38:59;;;;;;;48.20;9.30;;;;;;;;;;4976590;28;20126;-57
2022/08/24 07:41:26;;;;;;;57.45;10.70;;;;;;;;;;5045363;28;20504;-57
2022/08/24 07:44:16;;;;;;;40.50;8.35;;;;;;;;;;5028105;28;20446;-57
2022/08/24 07:46:42;;;;;;;57.25;9.88;;;;;;;;;;5044445;28;20042;-57
2022/08/24 07:49:11;;;;;;;44.45;8.75;;;;;;;;;;5017209;28;20077;-57
2022/08/24 07:51:59;;;;;;;42.50;8.73;;;;;;;;;;5026578;28;20046;-57
2022/08/24 07:54:27;;;;;;;51.65;9.02;;;;;;;;;;5028724;28;20053;-57
2022/08/24 07:56:54;;;;;;;58.63;10.80;;;;;;;;;;5027575;28;20045;-57
2022/08/24 07:59:21;;;;;;;64.90;9.52;;;;;;;;;;5029434;28;20149;-57
2022/08/24 08:01:49;;;;;;;71.53;10.45;;;;;;;;;;5027087;28;20458;-57
2022/08/24 08:04:20;;;;;;;77.20;10.05;;;;;;;;;;5014241;28;20038;-57
2022/08/24 08:06:47;;;;;;;75.32;11.57;;;;;;;;;;5047617;28;20137;-57
2022/08/24 08:09:14;;;;;;;63.97;10.05;;;;;;;;;;5043954;28;20038;-57
2022/08/24 08:11:41;;;;;;;54.97;10.30;;;;;;;;;;5030607;28;20089;-57
2022/08/24 08:14:08;;;;;;;90.20;11.93;;;;;;;;;;5025855;28;20049;-57
2022/08/24 08:16:34;;;;;;;55.40;10.35;;;;;;;;;;5022826;28;20494;-57
2022/08/24 08:19:01;;;;;;;58.20;10.23;;;;;;;;;;5017402;28;20414;-58
2022/08/24 08:24:33;;;;;;;60.85;10.10;;;;;;;;;;5030140;28;20112;-57
2022/08/24 08:27:01;;;;;;;75.65;11.52;;;;;;;;;;5061742;28;20049;-57
2022/08/24 08:29:39;;;;;;;80.43;10.63;;;;;;;;;;5026457;28;20736;-57
2022/08/24 08:32:07;;;;;;;68.40;11.38;;;;;;;;;;5024381;28;20497;-57
2022/08/24 08:34:34;;;;;;;58.72;10.90;;;;;;;;;;5025788;28;20037;-57
2022/08/24 08:37:02;;;;;;;57.08;11.13;;;;;;;;;;5032469;28;20053;-57
2022/08/24 08:39:29;;;;;;;73.90;10.63;;;;;;;;;;5025800;28;20046;-57
2022/08/24 08:42:18;;;;;;;73.53;12.32;;;;;;;;;;5026803;28;20046;-57
2022/08/24 08:44:57;;;;;;;65.65;10.98;;;;;;;;;;5027009;28;20049;-58
2022/08/24 08:47:56;;;;;;;80.38;10.35;;;;;;;;;;5029724;28;20521;-58
2022/08/24 08:50:27;;;;;;;61.08;10.75;;;;;;;;;;4986460;28;20057;-57
2022/08/24 08:53:03;;;;;;;87.72;12.23;;;;;;;;;;4985646;28;20134;-58
2022/08/24 08:55:33;;;;;;;74.35;12.13;;;;;;;;;;4953615;28;20127;-57
2022/08/24 08:58:07;;;;;;;69.57;12.15;;;;;;;;;;4952695;28;20070;-57
2022/08/24 09:00:43;;;;;;;83.25;13.65;;;;;;;;;;4985509;28;20065;-57
2022/08/24 09:03:29;;;;;;;63.15;10.55;;;;;;;;;;4953932;28;20058;-58
2022/08/24 09:06:21;;;;;;;76.63;11.95;;;;;;;;;;4968901;28;20050;-58
2022/08/24 09:08:48;;;;;;;;;;;;;;;;;;4953655;28;20046;-57
2022/08/24 09:11:32;;;;;;;75.90;10.73;;;;;;;;;;4985018;28;20722;-57
2022/08/24 09:14:13;;;;;;;66.85;10.90;;;;;;;;;;4951871;28;20117;-58
2022/08/24 09:17:00;;;;;;;97.15;13.25;;;;;;;;;;4985149;28;20050;-60
2022/08/24 09:19:46;;;;;;;75.10;11.70;;;;;;;;;;4985231;28;20124;-61
2022/08/24 09:22:17;;;;;;;68.78;12.80;;;;;;;;;;4985357;28;20051;-60
2022/08/24 09:24:52;;;;;;;74.47;12.48;;;;;;;;;;4954396;28;20074;-61
2022/08/24 09:27:54;;;;;;;73.85;12.25;;;;;;;;;;4997987;28;20049;-61
2022/08/24 09:30:26;;;;;;;83.47;11.40;;;;;;;;;;5010907;28;20120;-61
2022/08/24 09:33:00;;;;;;;73.22;11.52;;;;;;;;;;5026837;28;20080;-61
2022/08/24 09:35:42;;;;;;;75.00;12.25;;;;;;;;;;5022936;28;20045;-61
2022/08/24 09:38:26;;;;;;;89.10;12.83;;;;;;;;;;5024837;28;20401;-61
2022/08/24 09:40:56;;;;;;;82.47;11.35;;;;;;;;;;5025927;28;20053;-62
2022/08/24 09:43:25;;;;;;;62.10;11.20;;;;;;;;;;5027022;28;20120;-61
2022/08/24 09:46:24;;;;;;;82.20;13.65;;;;;;;;;;5025591;28;20402;-62
2022/08/24 09:49:14;;;;;;;74.15;12.68;;;;;;;;;;4968377;28;20058;-62
2022/08/24 09:51:59;;;;;;;85.72;12.02;;;;;;;;;;4959167;28;20385;-62
2022/08/24 09:54:44;;;;;;;69.82;10.82;;;;;;;;;;4969051;28;20126;-62
2022/08/24 09:57:10;;;;;;;85.70;11.55;;;;;;;;;;4968560;28;20145;-62
2022/08/24 09:59:57;;;;;;;65.97;11.23;;;;;;;;;;4969719;28;20061;-63
2022/08/24 10:02:42;;;;;;;72.13;11.45;;;;;;;;;;4968638;28;20516;-62
2022/08/24 10:05:17;;;;;;;65.82;12.18;;;;;;;;;;4969098;28;20055;-62
2022/08/24 10:07:49;;;;;;;89.05;12.95;;;;;;;;;;4967914;28;20078;-62
2022/08/24 10:10:37;;;;;;;83.45;11.68;;;;;;;;;;4968607;28;20051;-62
2022/08/24 10:13:22;;;;;;;101.32;14.00;;;;;;;;;;4968295;28;20182;-62
2022/08/24 10:16:11;;;;;;;79.53;11.88;;;;;;;;;;4968870;28;20074;-61
2022/08/24 10:18:44;;;;;;;74.95;12.10;;;;;;;;;;4968708;28;20467;-62
2022/08/24 10:21:17;;;;;;;77.05;12.63;;;;;;;;;;4952204;28;20055;-62
2022/08/24 10:23:49;;;;;;;95.57;13.55;;;;;;;;;;4976693;28;20060;-62
2022/08/24 10:26:33;;;;;;;92.93;13.10;;;;;;;;;;5025453;28;20189;-62
2022/08/24 10:29:06;;;;;;;73.35;12.07;;;;;;;;;;5027400;28;20037;-62
2022/08/24 10:31:41;;;;;;;81.65;11.73;;;;;;;;;;5031823;28;20045;-61
2022/08/24 10:34:26;;;;;;;79.90;12.27;;;;;;;;;;5028953;28;20042;-62
2022/08/24 10:37:11;;;;;;;91.97;13.52;;;;;;;;;;5018755;28;20056;-62
2022/08/24 10:39:58;;;;;;;80.25;12.02;;;;;;;;;;5028218;28;20092;-62
2022/08/24 10:45:41;;;;;;;79.05;11.35;;;;;;;;;;5021761;28;20089;-62
2022/08/24 10:48:11;;;;;;;;;;;;;;;;;;5019287;28;20526;-61
2022/08/24 10:50:50;;;;;;;88.88;13.45;;;;;;;;;;5032432;28;19921;-61
2022/08/24 10:53:27;;;;;;;93.10;11.27;;;;;;;;;;5028937;28;20112;-62
2022/08/24 10:56:04;;;;;;;92.40;12.23;;;;;;;;;;5028476;28;20514;-61
2022/08/24 10:58:45;;;;;;;90.18;10.98;;;;;;;;;;5028550;28;20061;-61
2022/08/24 11:01:21;;;;;;;78.07;10.45;;;;;;;;;;5029408;28;20073;-61
2022/08/24 11:03:53;;;;;;;118.43;15.20;;;;;;;;;;5028540;28;20037;-61
2022/08/24 11:06:20;;;;;;;76.63;11.60;;;;;;;;;;5013670;28;20056;-62
2022/08/24 11:08:52;;;;;;;87.72;12.07;;;;;;;;;;5033182;28;20065;-62
2022/08/24 11:11:23;;;;;;;88.15;11.63;;;;;;;;;;5029098;28;20057;-62
2022/08/24 11:13:50;;;;;;;86.20;12.10;;;;;;;;;;5028344;28;20067;-61
2022/08/24 11:16:24;;;;;;;95.90;12.90;;;;;;;;;;5028480;28;20412;-61
2022/08/24 11:18:53;;;;;;;87.75;12.82;;;;;;;;;;5028158;28;20462;-61
2022/08/24 11:21:33;;;;;;;86.50;13.57;;;;;;;;;;5029737;28;20423;-61
2022/08/24 11:24:23;;;;;;;85.82;12.68;;;;;;;;;;5020196;28;20052;-61
2022/08/24 11:26:52;;;;;;;100.40;12.55;;;;;;;;;;5002278;28;20109;-62
2022/08/24 11:29:22;;;;;;;70.88;12.13;;;;;;;;;;5006950;28;20053;-61
2022/08/24 11:31:49;;;;;;;103.38;13.27;;;;;;;;;;5005204;28;20145;-61
2022/08/24 11:34:17;;;;;;;81.82;10.98;;;;;;;;;;4997754;28;20042;-61
2022/08/24 11:36:44;;;;;;;90.80;12.25;;;;;;;;;;4995716;28;20121;-62
2022/08/24 11:39:21;;;;;;;99.45;14.18;;;;;;;;;;5007131;28;20144;-62
2022/08/24 11:41:47;;;;;;;108.53;12.77;;;;;;;;;;5010787;28;20073;-62
2022/08/24 11:44:37;;;;;;;90.18;11.98;;;;;;;;;;5005752;28;20191;-62
2022/08/24 11:47:03;;;;;;;116.60;13.02;;;;;;;;;;4995418;28;20506;-61
2022/08/24 11:49:32;;;;;;;105.55;12.70;;;;;;;;;;5005375;28;20053;-61
2022/08/24 11:52:06;;;;;;;89.93;12.27;;;;;;;;;;5005472;28;20124;-61
2022/08/24 11:54:33;;;;;;;87.80;11.90;;;;;;;;;;4999385;28;20042;-61
2022/08/24 11:57:14;;;;;;;95.25;12.13;;;;;;;;;;4993083;28;20153;-62
2022/08/24 11:59:54;;;;;;;93.05;11.30;;;;;;;;;;4988736;28;20053;-62
2022/08/24 12:02:32;;;;;;;102.10;13.32;;;;;;;;;;4987407;28;20903;-63
2022/08/24 12:05:02;;;;;;;117.57;14.63;;;;;;;;;;5026001;28;21342;-61
2022/08/24 12:07:43;;;;;;;107.38;13.63;;;;;;;;;;5023745;28;20119;-61
2022/08/24 12:10:21;;;;;;;93.70;12.50;;;;;;;;;;5027825;28;20155;-61
2022/08/24 12:12:58;;;;;;;99.78;13.40;;;;;;;;;;5027574;28;20111;-62
2022/08/24 12:15:43;;;;;;;64.85;10.30;;;;;;;;;;5026839;28;20077;-62
2022/08/24 12:18:27;;;;;;;98.63;12.88;;;;;;;;;;5026672;28;20046;-63
2022/08/24 12:20:54;;;;;;;86.53;12.38;;;;;;;;;;5028394;28;20049;-63
2022/08/24 12:23:39;;;;;;;126.45;15.50;;;;;;;;;;5027591;28;20048;-63
2022/08/24 12:26:12;;;;;;;99.63;12.80;;;;;;;;;;5027329;28;20071;-63
2022/08/24 12:28:38;;;;;;;92.20;12.07;;;;;;;;;;5026427;28;20113;-62
2022/08/24 12:31:07;;;;;;;88.63;13.05;;;;;;;;;;5042405;28;20045;-63
2022/08/24 12:33:35;;;;;;;85.03;11.68;;;;;;;;;;5027249;28;20046;-63
2022/08/24 12:36:06;;;;;;;120.80;13.95;;;;;;;;;;5018616;28;20085;-63
2022/08/24 12:38:39;;;;;;;96.00;13.00;;;;;;;;;;5029743;28;20044;-63
2022/08/24 12:41:22;;;;;;;92.55;11.68;;;;;;;;;;5027663;28;20136;-63
2022/08/24 12:43:56;;;;;;;93.53;12.48;;;;;;;;;;5023468;28;20045;-63
2022/08/24 12:46:24;;;;;;;96.47;13.02;;;;;;;;;;5015541;28;20041;-63
2022/08/24 12:48:54;;;;;;;124.88;15.07;;;;;;;;;;5025133;28;20147;-63
2022/08/24 12:51:21;;;;;;;79.95;11.88;;;;;;;;;;5027291;28;20125;-63
2022/08/24 12:54:00;;;;;;;95.72;12.07;;;;;;;;;;5028648;28;20042;-63
2022/08/24 12:56:47;;;;;;;92.15;13.40;;;;;;;;;;5030453;28;20540;-63
2022/08/24 12:59:21;;;;;;;94.00;11.50;;;;;;;;;;5026380;28;20046;-63
2022/08/24 13:02:02;;;;;;;70.65;11.73;;;;;;;;;;5027010;28;20041;-63
2022/08/24 13:04:35;;;;;;;91.20;14.10;;;;;;;;;;5026562;28;20116;-63
2022/08/24 13:07:08;;;;;;;91.88;11.60;;;;;;;;;;5026713;28;20060;-63
2022/08/24 13:09:34;;;;;;;;;;;;;;;;;;5027043;28;20100;-63
2022/08/24 13:12:19;;;;;;;130.77;14.70;;;;;;;;;;5026839;28;19925;-63
2022/08/24 13:14:53;;;;;;;107.60;12.93;;;;;;;;;;5030206;28;20099;-63
2022/08/24 13:17:38;;;;;;;105.93;14.98;;;;;;;;;;5026957;28;20274;-62
2022/08/24 13:20:15;;;;;;;96.10;12.37;;;;;;;;;;5025837;28;20037;-62
2022/08/24 13:22:47;;;;;;;82.63;10.88;;;;;;;;;;5025536;28;20107;-63
2022/08/24 13:25:36;;;;;;;125.30;14.35;;;;;;;;;;5025762;28;20030;-63
2022/08/24 13:28:05;;;;;;;115.65;13.30;;;;;;;;;;5025509;28;20037;-63
2022/08/24 13:30:36;;;;;;;123.45;14.40;;;;;;;;;;5025295;28;20113;-63
2022/08/24 13:33:08;;;;;;;95.20;14.13;;;;;;;;;;5028470;28;20108;-63
2022/08/24 13:35:37;;;;;;;112.13;14.20;;;;;;;;;;5023879;28;20053;-63
2022/08/24 13:38:36;;;;;;;85.20;12.07;;;;;;;;;;5024204;28;20051;-63
2022/08/24 13:41:07;;;;;;;84.57;12.10;;;;;;;;;;4969470;28;20431;-63
2022/08/24 13:43:38;;;;;;;85.05;12.00;;;;;;;;;;4967969;28;20082;-63
2022/08/24 13:46:14;;;;;;;126.65;14.20;;;;;;;;;;4969350;28;20070;-63
2022/08/24 13:48:47;;;;;;;103.47;14.32;;;;;;;;;;4969328;28;20683;-61
2022/08/24 13:51:15;;;;;;;77.00;11.27;;;;;;;;;;4968918;28;20464;-60
2022/08/24 13:53:53;;;;;;;102.10;12.95;;;;;;;;;;4968404;28;20105;-61
2022/08/24 13:56:26;;;;;;;83.90;11.73;;;;;;;;;;4967158;28;20062;-63
2022/08/24 13:59:17;;;;;;;84.38;10.75;;;;;;;;;;4966169;28;20384;-62
2022/08/24 14:01:43;;;;;;;84.30;12.48;;;;;;;;;;4969266;28;20050;-62
2022/08/24 14:04:10;;;;;;;100.35;13.57;;;;;;;;;;4972530;28;20410;-62
2022/08/24 14:06:46;;;;;;;96.15;13.43;;;;;;;;;;4973850;28;20122;-62
2022/08/24 14:09:31;;;;;;;98.32;12.32;;;;;;;;;;4971631;28;20117;-62
2022/08/24 14:12:22;;;;;;;122.93;15.98;;;;;;;;;;4972338;28;20054;-62
2022/08/24 14:14:50;;;;;;;96.43;13.18;;;;;;;;;;4973376;28;20245;-62
2022/08/24 14:20:38;;;;;;;88.72;13.35;;;;;;;;;;5033739;28;20490;-62
2022/08/24 14:23:11;;;;;;;269.23;22.88;;;;;;;;;;5029475;28;20065;-62
2022/08/24 14:25:38;;;;;;;102.50;13.85;;;;;;;;;;5029727;28;20069;-63
2022/08/24 14:28:24;;;;;;;188.32;19.35;;;;;;;;;;5025659;28;20383;-62
2022/08/24 14:31:28;;;;;;;105.47;13.55;;;;;;;;;;5020385;28;20568;-62
2022/08/24 14:33:54;;;;;;;93.75;13.20;;;;;;;;;;4954853;28;20047;-62
2022/08/24 14:36:27;;;;;;;77.97;10.32;;;;;;;;;;4954444;28;20071;-62
2022/08/24 14:39:07;;;;;;;107.43;14.40;;;;;;;;;;4950452;28;20175;-62
2022/08/24 14:41:45;;;;;;;72.53;9.75;;;;;;;;;;4955939;28;20086;-62
2022/08/24 14:44:11;;;;;;;74.70;11.32;;;;;;;;;;4953121;28;20095;-62
2022/08/24 14:46:47;;;;;;;107.30;12.40;;;;;;;;;;4948614;28;20063;-62
2022/08/24 14:49:32;;;;;;;91.00;13.07;;;;;;;;;;4949664;28;20079;-62
2022/08/24 14:52:01;;;;;;;186.43;18.48;;;;;;;;;;4952785;28;20130;-62
2022/08/24 14:54:43;;;;;;;107.63;13.30;;;;;;;;;;4953044;28;20519;-62
2022/08/24 14:57:19;;;;;;;98.90;11.43;;;;;;;;;;4952250;28;20055;-55
2022/08/24 15:00:02;;;;;;;91.40;12.07;;;;;;;;;;4953677;28;20086;-62
2022/08/24 15:02:28;;;;;;;92.28;11.82;;;;;;;;;;4952474;28;20051;-62